Terminal Aerodrome Forecast
Issued by NWS Blacksburg, VA

Current Version | Previous Version | Graphics & Text | Print | Product List | Glossary On
Versions: 1 2 3 4 5 6 7 8 9 10 11 12 13 14 15 16 17 18 19 20 21 22 23 24 25 26 27 28 29 30 31 32 33 34 35 36 37 38 39 40 41 42 43 44 45 46 47 48 49 50
934
FTUS41 KRNK 040908 AAA
TAFBLF
TAF AMD
KBLF 040908Z 0409/0506 25003KT P6SM SCT015 BKN070
      TEMPO 0409/0412 BKN015
     FM041200 28005KT P6SM OVC020
     FM041700 28010G17KT P6SM BKN040
     FM050000 30005KT 6SM -SHRA OVC030
     FM050300 27005KT 4SM -SHRA BR OVC015=

USA.gov is the U.S. government's official web portal to all federal, state and local government web resources and services.